Time;durP1;ratioP1;P1;durP2;ratioP2;P2;SDS_P1;SDS_P2;PMS_P1;PMS_P2;Temp;Humidity;BMP_temperature;BMP_pressure;BME280_temperature;BME280_humidity;BME280_pressure;Samples;Min_cycle;Max_cycle;Signal;HPM_P1;HPM_P2
2023/12/17 00:00:13;;;;;;;2.33;2.10;;;7.90;99.90;7.80;102466.00;;;;4920400;28;82610;-72
2023/12/17 00:02:39;;;;;;;3.63;2.13;;;7.90;99.90;7.80;102460.00;;;;4910658;28;84506;-70
2023/12/17 00:05:06;;;;;;;2.50;1.50;;;7.90;99.90;7.80;102473.00;;;;4909756;28;111781;-70
2023/12/17 00:07:31;;;;;;;4.87;2.50;;;7.90;99.90;7.80;102467.00;;;;4911173;28;87530;-70
2023/12/17 00:09:57;;;;;;;5.00;2.10;;;7.90;99.90;7.80;102474.00;;;;4912016;28;106702;-73
2023/12/17 00:12:23;;;;;;;2.30;2.10;;;7.90;99.90;7.80;102462.00;;;;4909584;28;111469;-73
2023/12/17 00:14:48;;;;;;;3.37;1.57;;;8.00;99.90;7.80;102457.00;;;;4917714;28;111141;-70
2023/12/17 00:17:14;;;;;;;4.87;2.13;;;7.90;99.90;7.80;102462.00;;;;4910073;28;110410;-70
2023/12/17 00:19:40;;;;;;;3.63;2.70;;;8.00;99.90;7.80;102456.00;;;;4926769;28;83929;-71
2023/12/17 00:22:05;;;;;;;3.67;1.97;;;8.00;99.90;7.80;102459.00;;;;4910821;28;88570;-70
2023/12/17 00:24:31;;;;;;;3.00;2.30;;;7.90;99.90;7.80;102461.00;;;;4915842;28;111412;-70
2023/12/17 00:26:57;;;;;;;6.17;2.17;;;7.90;99.90;7.80;102440.00;;;;4914177;28;108766;-71
2023/12/17 00:29:24;;;;;;;3.30;2.27;;;7.90;99.90;7.80;102441.00;;;;4913882;28;82944;-72
2023/12/17 00:31:49;;;;;;;4.40;2.70;;;7.90;99.90;7.80;102444.00;;;;4912092;28;83693;-71
2023/12/17 00:34:15;;;;;;;3.53;1.93;;;8.20;99.90;7.80;102441.00;;;;4913443;28;112989;-70
2023/12/17 00:36:41;;;;;;;2.93;2.20;;;7.90;99.90;7.80;102447.00;;;;4909867;28;108520;-71
2023/12/17 00:39:07;;;;;;;2.57;2.00;;;7.90;99.90;7.80;102429.00;;;;4913863;28;108617;-72
2023/12/17 00:41:33;;;;;;;5.50;1.90;;;7.90;99.90;7.80;102434.00;;;;4911352;28;83459;-71
2023/12/17 00:43:59;;;;;;;3.57;1.73;;;7.90;99.90;7.80;102447.00;;;;4912054;28;83702;-71
2023/12/17 00:46:25;;;;;;;3.67;1.93;;;7.90;99.90;7.80;102443.00;;;;4910994;28;109538;-70
2023/12/17 00:48:50;;;;;;;6.53;2.13;;;7.90;99.90;7.70;102430.00;;;;4912033;28;82925;-71
2023/12/17 00:51:16;;;;;;;6.70;2.60;;;7.90;99.90;7.70;102422.00;;;;4909620;28;112242;-73
2023/12/17 00:53:42;;;;;;;3.07;2.47;;;7.80;99.90;7.70;102420.00;;;;4925521;28;112148;-71
2023/12/17 00:56:08;;;;;;;4.73;2.07;;;7.90;99.90;7.70;102419.00;;;;4909256;28;111136;-70
2023/12/17 00:58:33;;;;;;;1.50;1.40;;;7.90;99.90;7.70;102423.00;;;;4915591;28;85932;-70
2023/12/17 01:01:01;;;;;;;3.83;2.13;;;7.80;99.90;7.70;102417.00;;;;4910808;28;112284;-70
2023/12/17 01:03:27;;;;;;;2.80;2.03;;;7.80;99.90;7.70;102418.00;;;;4916620;28;83393;-72
2023/12/17 01:05:53;;;;;;;3.00;2.00;;;7.80;99.90;7.60;102436.00;;;;4909948;28;93743;-73
2023/12/17 01:08:18;;;;;;;2.70;1.80;;;7.80;99.90;7.60;102449.00;;;;4910757;28;94915;-72
2023/12/17 01:10:44;;;;;;;2.47;1.83;;;7.80;99.90;7.60;102446.00;;;;4913109;28;82470;-71
2023/12/17 01:13:10;;;;;;;1.60;1.43;;;7.80;99.90;7.60;102449.00;;;;4913317;28;82916;-70
2023/12/17 01:15:35;;;;;;;4.67;2.57;;;7.70;99.90;7.50;102455.00;;;;4910994;28;110936;-72
2023/12/17 01:18:01;;;;;;;5.33;2.37;;;7.70;99.90;7.50;102462.00;;;;4908885;28;82378;-71
2023/12/17 01:20:27;;;;;;;3.77;1.73;;;8.00;99.90;7.50;102458.00;;;;4912161;28;111481;-70
2023/12/17 01:22:52;;;;;;;3.93;2.43;;;7.60;99.90;7.50;102458.00;;;;4912008;28;111374;-73
2023/12/17 01:25:18;;;;;;;2.27;1.87;;;7.60;99.90;7.50;102448.00;;;;4912197;28;109730;-71
2023/12/17 01:27:44;;;;;;;7.03;2.27;;;7.60;99.90;7.40;102443.00;;;;4914434;28;107385;-72
2023/12/17 01:30:10;;;;;;;5.10;1.97;;;8.20;99.90;7.40;102463.00;;;;4909539;28;113057;-71
2023/12/17 01:32:35;;;;;;;3.17;1.67;;;7.50;99.90;7.40;102452.00;;;;4906100;28;102666;-71
2023/12/17 01:35:02;;;;;;;3.53;1.83;;;7.50;99.90;7.30;102451.00;;;;4911674;28;84212;-71
2023/12/17 01:37:29;;;;;;;3.53;2.40;;;7.50;99.90;7.30;102458.00;;;;4913235;28;82378;-70
2023/12/17 01:39:54;;;;;;;3.63;1.90;;;7.50;99.90;7.30;102456.00;;;;4910428;28;82855;-70
2023/12/17 01:42:20;;;;;;;3.90;2.00;;;7.50;99.90;7.30;102443.00;;;;4912170;28;112754;-70
2023/12/17 01:44:46;;;;;;;2.90;2.17;;;7.40;99.90;7.20;102455.00;;;;4907963;28;93470;-70
2023/12/17 01:47:11;;;;;;;3.13;1.87;;;7.40;99.90;7.20;102438.00;;;;4912351;28;83014;-70
2023/12/17 01:49:37;;;;;;;4.77;2.17;;;7.30;99.90;7.10;102437.00;;;;4930674;28;82591;-70
2023/12/17 01:52:04;;;;;;;3.50;2.00;;;7.20;99.90;7.10;102434.00;;;;4910108;28;111349;-72
2023/12/17 01:54:30;;;;;;;3.63;2.70;;;7.30;99.90;7.00;102430.00;;;;4912051;28;82494;-70
2023/12/17 01:56:55;;;;;;;3.17;2.23;;;7.20;99.90;6.90;102416.00;;;;4922657;28;109470;-71
2023/12/17 01:59:22;;;;;;;4.00;1.73;;;7.10;99.90;6.90;102419.00;;;;4930684;28;111977;-71
2023/12/17 02:01:48;;;;;;;1.67;1.33;;;7.00;99.90;6.80;102413.00;;;;4907863;28;112047;-73
2023/12/17 02:04:14;;;;;;;3.03;1.80;;;7.00;99.90;6.70;102407.00;;;;4907610;28;94682;-71
2023/12/17 02:06:40;;;;;;;3.50;2.10;;;6.90;99.90;6.70;102408.00;;;;4923747;28;108092;-72
2023/12/17 02:09:05;;;;;;;8.87;2.37;;;6.90;99.90;6.60;102406.00;;;;4906754;28;112157;-70
2023/12/17 02:11:31;;;;;;;10.23;2.53;;;7.20;99.90;6.60;102412.00;;;;4911113;28;112961;-71
2023/12/17 02:14:00;;;;;;;5.60;1.93;;;6.80;99.90;6.50;102405.00;;;;4909254;28;81898;-72
2023/12/17 02:16:26;;;;;;;7.40;2.23;;;7.20;99.90;6.50;102423.00;;;;4909052;28;82601;-71
2023/12/17 02:18:51;;;;;;;6.33;1.83;;;7.20;99.90;6.50;102429.00;;;;4917318;28;92021;-72
2023/12/17 02:21:17;;;;;;;2.47;2.13;;;6.60;99.90;6.40;102434.00;;;;4910909;28;110870;-71
2023/12/17 02:23:42;;;;;;;3.07;2.30;;;6.60;99.90;6.40;102424.00;;;;4909384;28;109749;-73
2023/12/17 02:26:08;;;;;;;3.63;1.87;;;7.10;99.90;6.40;102434.00;;;;4908062;28;107978;-71
2023/12/17 02:28:34;;;;;;;5.33;1.87;;;6.60;99.90;6.30;102446.00;;;;4911750;28;112427;-73
2023/12/17 02:30:59;;;;;;;3.67;1.83;;;7.20;99.90;6.30;102446.00;;;;4915217;28;83207;-71
2023/12/17 02:33:25;;;;;;;2.37;1.57;;;7.10;99.90;6.30;102459.00;;;;4914807;28;110510;-72
2023/12/17 02:35:51;;;;;;;2.70;2.17;;;6.70;99.90;6.20;102451.00;;;;4912135;28;108433;-73
2023/12/17 02:38:17;;;;;;;4.50;2.00;;;6.40;99.90;6.20;102451.00;;;;4917820;28;85319;-72
2023/12/17 02:40:45;;;;;;;5.73;1.77;;;6.70;99.90;6.20;102450.00;;;;4917528;28;82696;-72
2023/12/17 02:43:11;;;;;;;2.07;1.87;;;6.20;99.90;6.10;102448.00;;;;4908217;28;82873;-70
2023/12/17 02:45:37;;;;;;;3.70;2.30;;;6.30;99.90;6.10;102443.00;;;;4919780;28;108690;-69
2023/12/17 02:48:03;;;;;;;5.53;2.97;;;6.90;99.90;6.10;102435.00;;;;4914362;28;82944;-70
2023/12/17 02:50:28;;;;;;;2.07;1.97;;;7.10;99.90;6.10;102445.00;;;;4915562;28;82480;-69
2023/12/17 02:52:54;;;;;;;1.87;1.37;;;6.40;99.90;6.00;102443.00;;;;4911752;28;110511;-70
2023/12/17 02:55:20;;;;;;;2.00;1.40;;;6.70;99.90;6.00;102454.00;;;;4912898;28;107609;-72
2023/12/17 02:57:45;;;;;;;5.23;2.10;;;7.00;99.90;6.00;102441.00;;;;4914502;28;110208;-69
2023/12/17 03:00:11;;;;;;;5.13;2.30;;;6.20;99.90;6.00;102446.00;;;;4912384;28;111385;-71
2023/12/17 03:02:39;;;;;;;11.90;1.83;;;6.20;99.90;6.00;102443.00;;;;4912658;28;81909;-72
2023/12/17 03:05:05;;;;;;;5.60;2.20;;;7.00;99.90;6.00;102432.00;;;;4913699;28;82744;-69
2023/12/17 03:07:31;;;;;;;3.47;2.03;;;6.10;99.90;5.90;102425.00;;;;4912811;28;83354;-69
2023/12/17 03:09:56;;;;;;;3.90;2.70;;;6.10;99.90;5.90;102420.00;;;;4911769;28;103964;-70
2023/12/17 03:12:22;;;;;;;5.80;2.33;;;6.50;99.90;5.90;102425.00;;;;4915551;28;108890;-69
2023/12/17 03:14:48;;;;;;;2.20;2.00;;;6.20;99.90;5.90;102431.00;;;;4917246;28;100391;-70
2023/12/17 03:17:13;;;;;;;5.23;2.00;;;6.10;99.90;5.80;102428.00;;;;4908868;28;112783;-71
2023/12/17 03:19:40;;;;;;;4.87;1.60;;;6.50;99.90;5.80;102431.00;;;;4913462;28;83185;-69
2023/12/17 03:22:05;;;;;;;6.27;2.00;;;6.40;99.90;5.80;102432.00;;;;4913337;28;83237;-69
2023/12/17 03:24:31;;;;;;;2.83;1.97;;;6.00;99.90;5.80;102425.00;;;;4914793;28;108099;-69
2023/12/17 03:26:57;;;;;;;1.80;1.37;;;6.00;99.90;5.70;102426.00;;;;4915037;28;110848;-70
2023/12/17 03:29:22;;;;;;;2.23;1.67;;;5.90;99.90;5.70;102428.00;;;;4904570;28;109564;-71
2023/12/17 03:31:48;;;;;;;2.73;2.13;;;5.90;99.90;5.70;102429.00;;;;4915928;28;100945;-69
2023/12/17 03:34:14;;;;;;;5.03;2.60;;;5.80;99.90;5.60;102418.00;;;;4911329;28;108974;-73
2023/12/17 03:36:39;;;;;;;5.43;1.80;;;5.80;99.90;5.60;102424.00;;;;4914109;28;93580;-70
2023/12/17 03:39:06;;;;;;;4.50;2.30;;;5.80;99.90;5.60;102431.00;;;;4914674;28;112415;-70
2023/12/17 03:41:31;;;;;;;1.83;1.53;;;6.40;99.90;5.60;102421.00;;;;4914855;28;82801;-72
2023/12/17 03:43:57;;;;;;;3.83;1.93;;;6.10;99.90;5.60;102419.00;;;;4911631;28;108412;-71
2023/12/17 03:46:25;;;;;;;4.53;2.43;;;5.80;99.90;5.60;102411.00;;;;4909499;28;112964;-70
2023/12/17 03:48:51;;;;;;;6.00;1.90;;;5.80;99.90;5.70;102403.00;;;;4912498;28;83707;-73
2023/12/17 03:51:17;;;;;;;1.53;1.30;;;5.80;99.90;5.60;102419.00;;;;4910055;28;90236;-70
2023/12/17 03:53:43;;;;;;;7.57;2.07;;;5.80;99.90;5.70;102404.00;;;;4908869;28;82313;-72
2023/12/17 03:56:10;;;;;;;4.20;1.97;;;5.80;99.90;5.70;102405.00;;;;4912114;28;112221;-71
2023/12/17 03:58:40;;;;;;;2.63;2.23;;;5.90;99.90;5.70;102390.00;;;;4916418;28;83770;-71
2023/12/17 04:01:07;;;;;;;3.57;2.07;;;5.90;99.90;5.70;102401.00;;;;4914661;28;82825;-70
2023/12/17 04:03:33;;;;;;;4.30;2.27;;;6.20;99.90;5.70;102408.00;;;;4912872;28;85454;-71
2023/12/17 04:06:00;;;;;;;2.67;1.83;;;5.90;99.90;5.70;102413.00;;;;4904148;28;84742;-72
2023/12/17 04:08:27;;;;;;;3.63;2.10;;;5.90;99.90;5.70;102411.00;;;;4914404;28;83884;-73
2023/12/17 04:10:53;;;;;;;6.70;2.30;;;6.50;99.90;5.80;102403.00;;;;4915900;28;108973;-70
2023/12/17 04:13:19;;;;;;;7.10;1.50;;;5.90;99.90;5.80;102404.00;;;;4917273;28;86013;-70
2023/12/17 04:15:45;;;;;;;3.27;1.93;;;6.00;99.90;5.80;102408.00;;;;4912072;28;82528;-70
2023/12/17 04:18:10;;;;;;;4.10;2.00;;;6.40;99.90;5.90;102410.00;;;;4913894;28;108250;-71
2023/12/17 04:20:36;;;;;;;3.90;1.67;;;6.90;99.90;5.90;102413.00;;;;4909508;28;108894;-73
2023/12/17 04:23:03;;;;;;;2.10;1.77;;;6.00;99.90;5.90;102407.00;;;;4911945;28;108169;-72
2023/12/17 04:25:31;;;;;;;4.63;2.10;;;6.50;99.90;5.90;102400.00;;;;4910311;28;100326;-70
2023/12/17 04:27:57;;;;;;;2.43;1.27;;;6.10;99.90;6.00;102392.00;;;;4914969;28;112036;-70
2023/12/17 04:30:22;;;;;;;5.20;1.70;;;6.80;99.90;6.00;102391.00;;;;4909616;28;101794;-70
2023/12/17 04:32:48;;;;;;;2.63;1.30;;;6.60;99.90;6.00;102387.00;;;;4909025;28;108111;-70
2023/12/17 04:35:15;;;;;;;1.73;1.40;;;6.10;99.90;6.00;102387.00;;;;4916298;28;83962;-70
2023/12/17 04:37:40;;;;;;;4.80;1.53;;;6.20;99.90;6.00;102386.00;;;;4910329;28;94047;-70
2023/12/17 04:40:07;;;;;;;7.47;1.70;;;6.40;99.90;6.10;102383.00;;;;4916586;28;109400;-70
2023/12/17 04:42:33;;;;;;;6.07;2.07;;;6.20;99.90;6.10;102381.00;;;;4915581;28;82663;-69
2023/12/17 04:44:58;;;;;;;4.30;2.27;;;6.30;99.90;6.10;102390.00;;;;4910010;28;109126;-70
2023/12/17 04:47:24;;;;;;;2.90;1.83;;;6.80;99.90;6.10;102387.00;;;;4914891;28;112204;-70
2023/12/17 04:49:50;;;;;;;6.20;2.13;;;6.30;99.90;6.10;102395.00;;;;4915455;28;82647;-73
2023/12/17 04:52:15;;;;;;;2.87;2.00;;;6.30;99.90;6.10;102392.00;;;;4910209;28;108977;-72
2023/12/17 04:54:41;;;;;;;2.47;1.53;;;6.50;99.90;6.20;102398.00;;;;4911821;28;113650;-69
2023/12/17 04:57:07;;;;;;;1.73;1.20;;;6.30;99.90;6.20;102398.00;;;;4909700;28;110140;-69
2023/12/17 04:59:32;;;;;;;2.67;1.83;;;6.40;99.90;6.20;102394.00;;;;4906948;28;107699;-72
2023/12/17 05:01:58;;;;;;;5.03;1.63;;;5.10;99.90;6.20;102399.00;;;;4910623;28;109899;-74
2023/12/17 05:04:24;;;;;;;7.80;1.60;;;6.40;99.90;6.20;102402.00;;;;4911413;28;112209;-69
2023/12/17 05:06:49;;;;;;;4.50;2.00;;;6.30;99.90;6.20;102408.00;;;;4909346;28;112514;-71
2023/12/17 05:09:15;;;;;;;7.50;1.57;;;6.40;99.90;6.30;102405.00;;;;4911863;28;108646;-70
2023/12/17 05:11:40;;;;;;;3.13;1.53;;;6.40;99.90;6.30;102414.00;;;;4911428;28;97936;-71
2023/12/17 05:14:06;;;;;;;3.33;1.70;;;6.40;99.90;6.30;102419.00;;;;4910981;28;83104;-71
2023/12/17 05:16:32;;;;;;;6.67;2.20;;;6.40;99.90;6.30;102418.00;;;;4910005;28;111219;-70
2023/12/17 05:18:58;;;;;;;3.07;1.60;;;6.40;99.90;6.30;102411.00;;;;4908631;28;102373;-70
2023/12/17 05:21:23;;;;;;;3.03;1.30;;;6.50;99.90;6.30;102422.00;;;;4911225;28;90129;-71
2023/12/17 05:23:49;;;;;;;3.03;1.63;;;6.40;99.90;6.30;102417.00;;;;4908224;28;112135;-72
2023/12/17 05:26:15;;;;;;;3.13;1.67;;;6.50;99.90;6.30;102434.00;;;;4914272;28;101123;-71
2023/12/17 05:28:41;;;;;;;2.77;1.87;;;6.40;99.90;6.30;102420.00;;;;4903763;28;82029;-70
2023/12/17 05:31:07;;;;;;;1.77;1.20;;;6.40;99.90;6.30;102425.00;;;;4914512;28;82423;-69
2023/12/17 05:33:33;;;;;;;4.37;1.63;;;6.50;99.90;6.30;102437.00;;;;4913766;28;100354;-70
2023/12/17 05:35:59;;;;;;;3.03;1.80;;;7.80;99.90;6.30;102436.00;;;;4910204;28;110886;-70
2023/12/17 05:38:28;;;;;;;3.47;2.23;;;6.70;99.90;6.30;102435.00;;;;4915696;28;85967;-72
2023/12/17 05:40:56;;;;;;;5.47;2.30;;;6.40;99.90;6.30;102436.00;;;;4919343;28;82590;-70
2023/12/17 05:43:28;;;;;;;2.33;1.70;;;6.50;99.90;6.30;102441.00;;;;4928606;28;111729;-69
2023/12/17 05:45:54;;;;;;;4.57;2.13;;;6.40;99.90;6.30;102463.00;;;;4910551;28;82836;-69
2023/12/17 05:48:20;;;;;;;2.43;2.10;;;6.50;99.90;6.30;102443.00;;;;4914597;28;96404;-70
2023/12/17 05:50:47;;;;;;;2.00;1.80;;;6.40;99.90;6.30;102446.00;;;;4913660;28;91442;-72
2023/12/17 05:53:13;;;;;;;2.07;1.80;;;6.50;99.90;6.30;102448.00;;;;4917167;28;83325;-70
2023/12/17 05:55:38;;;;;;;4.30;2.03;;;6.50;99.90;6.30;102442.00;;;;4913711;28;88999;-70
2023/12/17 05:58:04;;;;;;;3.10;2.27;;;6.90;99.90;6.30;102436.00;;;;4911291;28;110789;-70
2023/12/17 06:00:30;;;;;;;3.53;1.93;;;6.40;99.90;6.30;102449.00;;;;4909828;28;107922;-71
2023/12/17 06:02:55;;;;;;;2.30;2.03;;;6.50;99.90;6.30;102445.00;;;;4908270;28;85071;-71
2023/12/17 06:05:21;;;;;;;4.40;1.70;;;6.70;99.90;6.30;102451.00;;;;4913973;28;112142;-70
2023/12/17 06:07:47;;;;;;;8.43;2.03;;;6.50;99.90;6.30;102451.00;;;;4912553;28;109175;-72
2023/12/17 06:10:13;;;;;;;2.40;1.93;;;6.50;99.90;6.30;102456.00;;;;4916853;28;83349;-69
2023/12/17 06:12:38;;;;;;;5.17;1.57;;;7.20;99.90;6.30;102454.00;;;;4914082;28;111404;-70
2023/12/17 06:15:05;;;;;;;1.87;1.60;;;6.40;99.90;6.30;102451.00;;;;4915336;28;89141;-72
2023/12/17 06:17:31;;;;;;;2.70;1.97;;;6.50;99.90;6.30;102463.00;;;;4911873;28;87396;-70
2023/12/17 06:19:57;;;;;;;2.63;1.90;;;6.50;99.90;6.30;102465.00;;;;4916046;28;87876;-70
2023/12/17 06:22:24;;;;;;;2.53;1.50;;;6.40;99.90;6.30;102461.00;;;;4908800;28;117446;-71
2023/12/17 06:24:50;;;;;;;2.30;1.50;;;6.80;99.90;6.30;102462.00;;;;4910847;28;89246;-70
2023/12/17 06:27:17;;;;;;;3.73;2.43;;;6.50;99.90;6.30;102451.00;;;;4914071;28;95816;-72
2023/12/17 06:29:43;;;;;;;7.20;2.07;;;6.50;99.90;6.30;102457.00;;;;4911400;28;87583;-71
2023/12/17 06:32:12;;;;;;;2.20;1.43;;;6.50;99.90;6.30;102470.00;;;;4914998;28;88077;-70
2023/12/17 06:34:38;;;;;;;4.73;2.53;;;6.50;99.90;6.30;102471.00;;;;4912914;28;91146;-70
2023/12/17 06:37:04;;;;;;;2.50;2.00;;;6.50;99.90;6.30;102455.00;;;;4914305;28;109900;-71
2023/12/17 06:39:30;;;;;;;4.67;2.50;;;7.10;99.90;6.30;102456.00;;;;4914995;28;108774;-70
2023/12/17 06:41:56;;;;;;;1.77;1.50;;;6.50;99.90;6.30;102451.00;;;;4914101;28;117136;-73
2023/12/17 06:44:23;;;;;;;2.33;1.60;;;6.50;99.90;6.30;102457.00;;;;4914736;28;87736;-72
2023/12/17 06:46:49;;;;;;;2.27;2.07;;;6.50;99.90;6.30;102453.00;;;;4928708;28;109552;-71
2023/12/17 06:49:15;;;;;;;1.97;1.77;;;7.10;99.90;6.30;102460.00;;;;4909300;28;94567;-73
2023/12/17 06:51:40;;;;;;;1.83;1.63;;;6.90;99.90;6.30;102468.00;;;;4910338;28;88701;-72
2023/12/17 06:54:08;;;;;;;6.80;2.00;;;7.20;99.90;6.30;102477.00;;;;4906091;28;90046;-73
2023/12/17 06:56:33;;;;;;;3.27;2.00;;;6.50;99.90;6.30;102466.00;;;;4928679;28;88110;-73
2023/12/17 06:58:59;;;;;;;3.13;1.57;;;6.50;99.90;6.30;102476.00;;;;4909932;28;87887;-70
2023/12/17 07:01:25;;;;;;;4.37;2.20;;;6.50;99.90;6.30;102472.00;;;;4906374;28;117390;-72
2023/12/17 07:03:50;;;;;;;2.53;2.13;;;6.50;99.90;6.30;102474.00;;;;4912680;28;116326;-72
2023/12/17 07:06:16;;;;;;;1.90;1.80;;;6.60;99.90;6.30;102488.00;;;;4910742;28;110941;-71
2023/12/17 07:08:41;;;;;;;5.93;2.10;;;6.50;99.90;6.30;102485.00;;;;4909497;28;108440;-72
2023/12/17 07:11:09;;;;;;;3.73;2.13;;;6.50;99.90;6.30;102480.00;;;;4909378;28;116197;-70
2023/12/17 07:13:34;;;;;;;4.90;1.97;;;6.50;99.90;6.30;102479.00;;;;4910777;28;88491;-72
2023/12/17 07:16:00;;;;;;;3.77;1.87;;;6.50;99.90;6.30;102484.00;;;;4907948;28;104943;-70
2023/12/17 07:18:26;;;;;;;4.20;2.70;;;6.50;99.90;6.30;102487.00;;;;4905794;28;87900;-70
2023/12/17 07:20:51;;;;;;;3.00;1.83;;;6.50;99.90;6.30;102488.00;;;;4908254;28;117997;-71
2023/12/17 07:23:17;;;;;;;6.60;2.00;;;6.50;99.90;6.30;102488.00;;;;4907660;28;88407;-70
2023/12/17 07:25:43;;;;;;;5.00;2.27;;;6.40;99.90;6.30;102485.00;;;;4908458;28;87962;-70
2023/12/17 07:28:08;;;;;;;3.50;2.73;;;6.80;99.90;6.30;102497.00;;;;4904613;28;108338;-72
2023/12/17 07:30:35;;;;;;;4.13;2.67;;;6.70;99.90;6.30;102490.00;;;;4909465;28;115301;-73
2023/12/17 07:33:00;;;;;;;4.20;2.40;;;7.00;99.90;6.30;102486.00;;;;4894415;28;88104;-70
2023/12/17 07:35:26;;;;;;;2.73;2.53;;;6.60;99.90;6.30;102485.00;;;;4895411;28;87843;-70
2023/12/17 07:37:52;;;;;;;2.10;1.90;;;6.50;99.90;6.30;102491.00;;;;4910674;28;89007;-70
2023/12/17 07:40:18;;;;;;;2.87;2.17;;;6.50;99.90;6.30;102497.00;;;;4904738;28;120433;-72
2023/12/17 07:42:43;;;;;;;6.13;2.73;;;7.80;99.90;6.30;102489.00;;;;4905988;28;117386;-70
2023/12/17 07:45:09;;;;;;;5.53;2.33;;;6.50;99.90;6.40;102496.00;;;;4908978;28;110517;-70
2023/12/17 07:47:35;;;;;;;2.33;1.90;;;6.60;99.90;6.40;102493.00;;;;4888625;28;87597;-69
2023/12/17 07:50:01;;;;;;;9.50;2.00;;;6.50;99.90;6.40;102486.00;;;;4908748;28;88835;-70
2023/12/17 07:52:27;;;;;;;5.30;2.13;;;6.60;99.90;6.40;102494.00;;;;4906207;28;87505;-69
2023/12/17 07:54:53;;;;;;;4.13;2.23;;;6.60;99.90;6.40;102492.00;;;;4908974;28;111176;-69
2023/12/17 07:57:19;;;;;;;6.10;1.80;;;6.60;99.90;6.40;102502.00;;;;4904490;28;89532;-71
2023/12/17 07:59:47;;;;;;;3.70;2.27;;;6.60;99.90;6.40;102492.00;;;;4919670;28;88273;-69
2023/12/17 08:02:15;;;;;;;3.77;3.00;;;6.60;99.90;6.40;102491.00;;;;4908656;28;88629;-70
2023/12/17 08:04:41;;;;;;;4.03;2.80;;;6.60;99.90;6.50;102501.00;;;;4923848;28;87642;-72
2023/12/17 08:07:10;;;;;;;4.83;2.37;;;7.20;99.90;6.50;102504.00;;;;4924630;28;88948;-70
2023/12/17 08:09:35;;;;;;;3.27;1.70;;;6.60;99.90;6.50;102494.00;;;;4907769;28;88718;-70
2023/12/17 08:12:01;;;;;;;3.40;2.13;;;7.20;99.90;6.50;102491.00;;;;4907003;28;89667;-72
2023/12/17 08:14:28;;;;;;;8.10;2.63;;;6.70;99.90;6.50;102486.00;;;;4905973;28;87930;-71
2023/12/17 08:16:53;;;;;;;3.03;2.20;;;6.70;99.90;6.60;102493.00;;;;4904080;28;89436;-69
2023/12/17 08:19:19;;;;;;;3.83;2.57;;;6.70;99.90;6.60;102493.00;;;;4907031;28;115393;-72
2023/12/17 08:21:45;;;;;;;5.77;2.33;;;7.30;99.90;6.60;102488.00;;;;4893812;28;115508;-70
2023/12/17 08:24:11;;;;;;;3.80;2.17;;;6.80;99.90;6.60;102486.00;;;;4905403;28;87759;-72
2023/12/17 08:26:37;;;;;;;3.23;2.20;;;6.60;99.90;6.60;102486.00;;;;4904592;28;88739;-70
2023/12/17 08:29:03;;;;;;;6.00;2.07;;;6.80;99.90;6.70;102480.00;;;;4905808;28;117222;-70
2023/12/17 08:31:29;;;;;;;9.80;2.80;;;6.80;99.90;6.70;102479.00;;;;4905573;28;99328;-70
2023/12/17 08:33:54;;;;;;;3.33;2.30;;;6.90;99.90;6.70;102471.00;;;;4917515;28;87707;-70
2023/12/17 08:36:23;;;;;;;3.83;2.33;;;6.90;99.90;6.70;102471.00;;;;4908076;28;109319;-70
2023/12/17 08:38:48;;;;;;;3.47;2.43;;;6.80;99.90;6.70;102465.00;;;;4904680;28;87673;-70
2023/12/17 08:41:14;;;;;;;4.73;2.90;;;6.90;99.90;6.80;102465.00;;;;4912214;28;94764;-69
2023/12/17 08:43:40;;;;;;;3.53;1.97;;;7.00;99.90;6.80;102473.00;;;;4906720;28;104861;-69
2023/12/17 08:46:06;;;;;;;6.70;2.23;;;6.90;99.90;6.80;102467.00;;;;4896493;28;88221;-71
2023/12/17 08:48:32;;;;;;;4.57;2.13;;;7.00;99.90;6.80;102463.00;;;;4908010;28;87784;-70
2023/12/17 08:50:58;;;;;;;2.67;2.20;;;7.10;99.90;6.80;102462.00;;;;4905402;28;116917;-70
2023/12/17 08:53:26;;;;;;;10.53;2.50;;;6.90;99.90;6.80;102466.00;;;;4901581;28;109860;-69
2023/12/17 08:55:52;;;;;;;3.73;2.33;;;6.90;99.90;6.80;102470.00;;;;4906605;28;87446;-72
2023/12/17 08:58:18;;;;;;;5.20;2.77;;;8.20;99.90;6.80;102456.00;;;;4907601;28;87777;-70
2023/12/17 09:00:44;;;;;;;3.50;2.27;;;7.00;99.90;6.80;102455.00;;;;4906870;28;87749;-71
2023/12/17 09:03:09;;;;;;;8.30;2.03;;;7.00;99.90;6.80;102460.00;;;;4910245;28;105609;-70
2023/12/17 09:05:35;;;;;;;4.47;2.70;;;7.00;99.90;6.80;102468.00;;;;4909131;28;108178;-70
2023/12/17 09:08:02;;;;;;;2.50;2.03;;;7.00;99.90;6.80;102472.00;;;;4913071;28;116571;-70
2023/12/17 09:10:28;;;;;;;5.73;2.40;;;7.00;99.90;6.80;102466.00;;;;4906483;28;87558;-70
2023/12/17 09:12:54;;;;;;;7.60;2.80;;;7.00;99.90;6.80;102465.00;;;;4908043;28;98086;-70
2023/12/17 09:15:24;;;;;;;3.90;2.93;;;7.00;99.90;6.80;102466.00;;;;4905349;28;89138;-71
2023/12/17 09:17:50;;;;;;;4.83;2.80;;;7.00;99.90;6.80;102461.00;;;;4901292;28;92422;-70
2023/12/17 09:20:16;;;;;;;4.77;2.63;;;6.90;99.90;6.80;102453.00;;;;4903616;28;87843;-71
2023/12/17 09:22:41;;;;;;;1.90;1.60;;;7.00;99.90;6.80;102457.00;;;;4904386;28;88074;-71
2023/12/17 09:25:08;;;;;;;3.33;2.13;;;7.00;99.90;6.80;102473.00;;;;4904623;28;87659;-72
2023/12/17 09:27:33;;;;;;;3.37;1.70;;;7.00;99.90;6.90;102464.00;;;;4923347;28;87669;-71
2023/12/17 09:29:59;;;;;;;4.30;2.20;;;7.40;99.90;6.80;102453.00;;;;4903658;28;99095;-69
2023/12/17 09:32:26;;;;;;;2.67;2.43;;;7.00;99.90;6.80;102459.00;;;;4902487;28;110781;-71
2023/12/17 09:34:51;;;;;;;4.50;2.47;;;7.60;99.90;6.80;102443.00;;;;4909233;28;87856;-70
2023/12/17 09:37:17;;;;;;;6.20;2.43;;;7.50;99.90;6.80;102436.00;;;;4904540;28;119068;-71
2023/12/17 09:39:43;;;;;;;3.60;2.60;;;7.00;99.90;6.90;102439.00;;;;4904277;28;88673;-70
2023/12/17 09:42:09;;;;;;;2.33;2.13;;;7.00;99.90;6.90;102425.00;;;;4905459;28;87741;-73
2023/12/17 09:44:35;;;;;;;5.37;2.40;;;7.00;99.90;6.90;102436.00;;;;4894733;28;87847;-72
2023/12/17 09:47:00;;;;;;;2.70;1.83;;;7.00;99.90;6.90;102447.00;;;;4907107;28;117881;-73
2023/12/17 09:49:26;;;;;;;3.10;1.90;;;7.00;99.90;6.90;102430.00;;;;4906667;28;117431;-71
2023/12/17 09:52:01;;;;;;;4.27;2.63;;;7.10;99.90;6.90;102436.00;;;;4904658;28;110185;-71
2023/12/17 09:54:29;;;;;;;2.10;1.73;;;7.00;99.90;6.90;102432.00;;;;4919529;28;87969;-70
2023/12/17 09:56:57;;;;;;;3.53;2.23;;;7.40;99.90;6.90;102435.00;;;;4919107;28;116631;-73
2023/12/17 09:59:23;;;;;;;6.00;3.10;;;7.00;99.90;6.90;102425.00;;;;4913866;28;89377;-71
2023/12/17 10:01:48;;;;;;;4.30;2.90;;;7.10;99.90;6.90;102420.00;;;;4921677;28;87956;-72
2023/12/17 10:04:14;;;;;;;2.23;1.70;;;7.10;99.90;7.00;102414.00;;;;4886790;28;88613;-70
2023/12/17 10:06:40;;;;;;;3.13;2.60;;;7.00;99.90;7.00;102428.00;;;;4906024;28;89362;-70
2023/12/17 10:09:08;;;;;;;3.63;2.50;;;7.20;99.90;7.00;102433.00;;;;4904829;28;116806;-71
2023/12/17 10:11:33;;;;;;;2.83;2.50;;;7.50;99.90;7.00;102434.00;;;;4906232;28;87786;-70
2023/12/17 10:14:01;;;;;;;4.10;2.57;;;7.10;99.90;7.00;102433.00;;;;4904984;28;106786;-70
2023/12/17 10:16:27;;;;;;;2.23;2.03;;;7.10;99.90;6.90;102422.00;;;;4912244;28;117368;-72
2023/12/17 10:18:52;;;;;;;3.83;2.67;;;7.10;99.90;6.90;102438.00;;;;4907253;28;113221;-72
2023/12/17 10:21:18;;;;;;;2.87;2.40;;;7.40;99.90;7.00;102437.00;;;;4905200;28;98136;-70
2023/12/17 10:23:48;;;;;;;3.37;2.67;;;7.10;99.90;7.00;102432.00;;;;4907260;28;87906;-69
2023/12/17 10:26:13;;;;;;;4.60;2.80;;;7.10;99.90;7.00;102432.00;;;;4922444;28;88368;-71
2023/12/17 10:28:45;;;;;;;4.93;2.97;;;7.10;99.90;7.00;102438.00;;;;4906760;28;89078;-71
2023/12/17 10:31:15;;;;;;;3.90;2.30;;;7.10;99.90;7.00;102430.00;;;;4916772;28;87774;-72
2023/12/17 10:34:01;;;;;;;4.47;2.87;;;7.20;99.90;7.00;102428.00;;;;4910072;28;88058;-72
2023/12/17 10:36:27;;;;;;;4.90;2.90;;;7.20;99.90;7.00;102434.00;;;;4919080;28;87726;-70
2023/12/17 10:38:55;;;;;;;4.10;2.93;;;7.20;99.90;7.00;102430.00;;;;4904641;28;116604;-70
2023/12/17 10:41:23;;;;;;;3.10;2.70;;;7.20;99.90;7.00;102427.00;;;;4904936;28;109371;-72
2023/12/17 10:43:51;;;;;;;4.20;2.57;;;7.20;99.90;7.00;102430.00;;;;4916742;28;107496;-69
2023/12/17 10:46:17;;;;;;;3.47;2.70;;;7.20;99.90;7.10;102413.00;;;;4903811;28;116819;-70
2023/12/17 10:48:44;;;;;;;4.17;2.93;;;7.10;99.90;7.10;102417.00;;;;4908638;28;87910;-69
2023/12/17 10:51:10;;;;;;;3.33;2.60;;;7.30;99.90;7.10;102419.00;;;;4923734;28;110527;-70